Time;durP1;ratioP1;P1;durP2;ratioP2;P2;SDS_P1;SDS_P2;PMS_P1;PMS_P2;Temp;Humidity;BMP_temperature;BMP_pressure;BME280_temperature;BME280_humidity;BME280_pressure;Samples;Min_cycle;Max_cycle;Signal;HPM_P1;HPM_P2
2021/07/22 00:00:34;;;;;;;20.40;11.73;;;;;;;;;;5052860;28;20815;-66
2021/07/22 00:03:00;;;;;;;19.93;11.87;;;;;;;;;;5051137;28;20426;-66
2021/07/22 00:05:26;;;;;;;18.87;12.43;;;;;;;;;;5052692;28;20528;-66
2021/07/22 00:07:52;;;;;;;19.40;12.53;;;;;;;;;;5054852;28;20488;-66
2021/07/22 00:10:20;;;;;;;18.00;11.03;;;;;;;;;;5056780;28;20406;-65
2021/07/22 00:12:46;;;;;;;16.83;11.20;;;;;;;;;;5055743;28;20429;-65
2021/07/22 00:15:13;;;;;;;17.47;11.73;;;;;;;;;;5056697;28;20509;-66
2021/07/22 00:17:39;;;;;;;16.97;11.77;;;;;;;;;;5055517;28;20429;-66
2021/07/22 00:20:05;;;;;;;22.80;11.43;;;;;;;;;;5056367;28;20448;-66
2021/07/22 00:22:32;;;;;;;18.17;11.27;;;;;;;;;;5055093;28;20426;-66
2021/07/22 00:24:58;;;;;;;15.73;9.90;;;;;;;;;;5075188;28;20455;-66
2021/07/22 00:27:24;;;;;;;15.03;10.53;;;;;;;;;;5072233;28;20516;-66
2021/07/22 00:29:50;;;;;;;17.93;11.43;;;;;;;;;;5056447;28;20410;-66
2021/07/22 00:32:16;;;;;;;14.27;10.33;;;;;;;;;;5055322;28;20899;-66
2021/07/22 00:34:42;;;;;;;16.17;10.80;;;;;;;;;;5055530;28;20872;-66
2021/07/22 00:37:08;;;;;;;18.00;11.73;;;;;;;;;;5055677;28;20425;-66
2021/07/22 00:39:36;;;;;;;16.87;11.83;;;;;;;;;;5055573;28;20453;-66
2021/07/22 00:42:02;;;;;;;14.43;10.50;;;;;;;;;;5056110;28;20774;-66
2021/07/22 00:44:28;;;;;;;16.70;12.37;;;;;;;;;;5054953;28;20499;-66
2021/07/22 00:46:54;;;;;;;20.43;12.17;;;;;;;;;;5056070;28;20910;-67
2021/07/22 00:49:20;;;;;;;17.77;11.30;;;;;;;;;;5053591;28;20495;-66
2021/07/22 00:51:46;;;;;;;19.93;11.20;;;;;;;;;;5055654;28;20436;-66
2021/07/22 00:54:12;;;;;;;18.50;11.03;;;;;;;;;;5055197;28;20827;-66
2021/07/22 00:56:39;;;;;;;17.50;11.63;;;;;;;;;;5055878;28;20484;-66
2021/07/22 00:59:05;;;;;;;21.83;12.10;;;;;;;;;;5054567;28;20515;-67
2021/07/22 01:01:31;;;;;;;16.50;10.83;;;;;;;;;;5055557;28;20394;-66
2021/07/22 01:03:57;;;;;;;16.73;10.70;;;;;;;;;;5054597;28;20950;-67
2021/07/22 01:06:23;;;;;;;18.27;10.37;;;;;;;;;;5055653;28;20488;-66
2021/07/22 01:08:50;;;;;;;17.63;11.33;;;;;;;;;;5061173;28;20473;-66
2021/07/22 01:11:16;;;;;;;15.30;11.07;;;;;;;;;;5075363;28;20457;-66
2021/07/22 01:13:42;;;;;;;15.90;11.03;;;;;;;;;;5059520;28;20429;-66
2021/07/22 01:16:08;;;;;;;17.03;11.20;;;;;;;;;;5041313;28;20414;-66
2021/07/22 01:18:34;;;;;;;15.60;11.97;;;;;;;;;;5041657;28;20432;-66
2021/07/22 01:21:00;;;;;;;17.37;10.70;;;;;;;;;;5055319;28;20426;-66
2021/07/22 01:23:26;;;;;;;16.90;11.60;;;;;;;;;;5054395;28;20773;-66
2021/07/22 01:25:52;;;;;;;17.37;11.60;;;;;;;;;;5060735;28;20430;-66
2021/07/22 01:28:18;;;;;;;16.90;10.80;;;;;;;;;;5055992;28;20442;-66
2021/07/22 01:30:44;;;;;;;21.63;11.90;;;;;;;;;;5059110;28;20402;-66
2021/07/22 01:33:10;;;;;;;16.23;11.43;;;;;;;;;;5056107;28;20409;-65
2021/07/22 01:35:41;;;;;;;17.10;10.30;;;;;;;;;;5061480;28;20502;-66
2021/07/22 01:38:07;;;;;;;17.37;11.40;;;;;;;;;;5058460;28;20386;-65
2021/07/22 01:40:33;;;;;;;17.27;11.80;;;;;;;;;;5054834;28;20472;-65
2021/07/22 01:42:59;;;;;;;17.50;10.67;;;;;;;;;;5055062;28;20394;-65
2021/07/22 01:45:25;;;;;;;19.33;11.20;;;;;;;;;;5054169;28;20452;-66
2021/07/22 01:47:51;;;;;;;18.47;11.33;;;;;;;;;;5054781;28;20402;-65
2021/07/22 01:50:17;;;;;;;17.40;10.97;;;;;;;;;;5052666;28;20512;-65
2021/07/22 01:52:43;;;;;;;19.47;11.80;;;;;;;;;;5054679;28;20406;-66
2021/07/22 01:55:09;;;;;;;20.43;11.13;;;;;;;;;;5052360;28;20453;-66
2021/07/22 01:57:35;;;;;;;19.90;11.03;;;;;;;;;;5054502;28;20921;-66
2021/07/22 02:00:05;;;;;;;15.57;10.00;;;;;;;;;;5052676;28;20954;-66
2021/07/22 02:02:31;;;;;;;15.90;10.50;;;;;;;;;;5061084;28;20428;-66
2021/07/22 02:04:58;;;;;;;19.73;11.53;;;;;;;;;;5058459;28;20492;-66
2021/07/22 02:07:24;;;;;;;19.80;12.27;;;;;;;;;;5054213;28;20402;-66
2021/07/22 02:09:50;;;;;;;17.00;10.93;;;;;;;;;;5053354;28;20434;-66
2021/07/22 02:12:16;;;;;;;17.73;12.00;;;;;;;;;;5054251;28;20520;-66
2021/07/22 02:14:42;;;;;;;20.30;11.60;;;;;;;;;;5052165;28;20551;-66
2021/07/22 02:17:08;;;;;;;19.97;11.13;;;;;;;;;;5054403;28;20398;-66
2021/07/22 02:19:34;;;;;;;19.37;11.90;;;;;;;;;;5053174;28;20560;-66
2021/07/22 02:22:00;;;;;;;16.97;11.20;;;;;;;;;;5053968;28;20422;-66
2021/07/22 02:24:26;;;;;;;18.60;11.43;;;;;;;;;;5055582;28;20808;-66
2021/07/22 02:26:53;;;;;;;14.80;9.67;;;;;;;;;;5052876;28;20822;-66
2021/07/22 02:29:19;;;;;;;15.27;10.67;;;;;;;;;;5052052;28;20436;-66
2021/07/22 02:31:45;;;;;;;15.80;9.97;;;;;;;;;;5053981;28;20406;-66
2021/07/22 02:34:10;;;;;;;21.10;10.63;;;;;;;;;;5052581;28;20438;-66
2021/07/22 02:36:37;;;;;;;15.00;10.00;;;;;;;;;;5053786;28;20404;-66
2021/07/22 02:39:03;;;;;;;16.10;10.50;;;;;;;;;;5052645;28;20817;-66
2021/07/22 02:41:29;;;;;;;12.37;9.50;;;;;;;;;;5053560;28;20468;-66
2021/07/22 02:43:57;;;;;;;16.43;10.87;;;;;;;;;;5052975;28;20497;-66
2021/07/22 02:46:23;;;;;;;14.37;10.00;;;;;;;;;;5039463;28;20427;-66
2021/07/22 02:48:49;;;;;;;13.13;9.70;;;;;;;;;;5033408;28;20822;-66
2021/07/22 02:51:15;;;;;;;13.10;9.70;;;;;;;;;;5050792;28;20483;-66
2021/07/22 02:53:41;;;;;;;14.73;10.27;;;;;;;;;;5044262;28;20414;-66
2021/07/22 02:56:07;;;;;;;13.87;9.87;;;;;;;;;;5063447;28;20766;-66
2021/07/22 02:58:33;;;;;;;18.77;9.57;;;;;;;;;;5073490;28;20451;-66
2021/07/22 03:00:59;;;;;;;15.60;9.90;;;;;;;;;;5055913;28;20974;-66
2021/07/22 03:03:25;;;;;;;16.00;10.03;;;;;;;;;;5053516;28;20480;-66
2021/07/22 03:05:51;;;;;;;17.23;10.13;;;;;;;;;;5052212;28;20453;-66
2021/07/22 03:08:17;;;;;;;14.67;9.50;;;;;;;;;;5053190;28;20402;-66
2021/07/22 03:10:43;;;;;;;17.23;9.10;;;;;;;;;;5052392;28;20918;-65
2021/07/22 03:13:09;;;;;;;28.33;9.70;;;;;;;;;;5053171;28;20398;-65
2021/07/22 03:15:35;;;;;;;24.47;10.13;;;;;;;;;;5052284;28;20445;-65
2021/07/22 03:18:01;;;;;;;14.70;9.30;;;;;;;;;;5053063;28;20426;-65
2021/07/22 03:20:27;;;;;;;15.00;9.73;;;;;;;;;;5051717;28;20503;-65
2021/07/22 03:22:54;;;;;;;18.43;9.57;;;;;;;;;;5053200;28;20391;-65
2021/07/22 03:25:20;;;;;;;15.27;10.30;;;;;;;;;;5052480;28;20469;-66
2021/07/22 03:27:46;;;;;;;14.00;10.00;;;;;;;;;;5052911;28;20390;-65
2021/07/22 03:30:12;;;;;;;18.53;11.07;;;;;;;;;;5052193;28;20853;-65
2021/07/22 03:32:38;;;;;;;14.90;11.33;;;;;;;;;;5050963;28;20788;-65
2021/07/22 03:35:05;;;;;;;17.10;10.60;;;;;;;;;;5052028;28;20913;-65
2021/07/22 03:37:31;;;;;;;16.10;10.00;;;;;;;;;;5047899;28;20465;-65
2021/07/22 03:39:57;;;;;;;16.97;11.30;;;;;;;;;;5050596;28;20454;-65
2021/07/22 03:42:27;;;;;;;14.40;10.10;;;;;;;;;;5053008;28;20400;-66
2021/07/22 03:44:53;;;;;;;16.60;11.13;;;;;;;;;;5051816;28;20541;-66
2021/07/22 03:47:19;;;;;;;13.67;9.43;;;;;;;;;;5052884;28;20527;-66
2021/07/22 03:49:45;;;;;;;17.10;11.00;;;;;;;;;;5051867;28;20417;-66
2021/07/22 03:52:13;;;;;;;16.20;10.90;;;;;;;;;;5052728;28;20402;-66
2021/07/22 03:54:39;;;;;;;15.57;10.90;;;;;;;;;;5052087;28;20817;-66
2021/07/22 03:57:06;;;;;;;15.87;11.33;;;;;;;;;;5053033;28;20488;-66
2021/07/22 03:59:32;;;;;;;19.20;12.03;;;;;;;;;;5052009;28;20437;-66
2021/07/22 04:01:58;;;;;;;18.83;10.97;;;;;;;;;;5052653;28;20390;-66
2021/07/22 04:04:24;;;;;;;17.30;11.30;;;;;;;;;;5051587;28;20450;-67
2021/07/22 04:06:50;;;;;;;16.33;11.43;;;;;;;;;;5052647;28;20844;-66
2021/07/22 04:09:16;;;;;;;15.60;9.63;;;;;;;;;;5052520;28;20925;-66
2021/07/22 04:11:42;;;;;;;16.20;11.13;;;;;;;;;;5049843;28;20413;-66
2021/07/22 04:14:08;;;;;;;16.30;10.97;;;;;;;;;;5065505;28;20445;-66
2021/07/22 04:16:35;;;;;;;16.37;10.20;;;;;;;;;;5061059;28;20424;-66
2021/07/22 04:19:02;;;;;;;16.80;10.90;;;;;;;;;;5060324;28;20452;-66
2021/07/22 04:21:28;;;;;;;13.20;8.70;;;;;;;;;;5054468;28;20417;-66
2021/07/22 04:23:54;;;;;;;18.80;11.13;;;;;;;;;;5052379;28;20464;-66
2021/07/22 04:26:20;;;;;;;16.87;11.57;;;;;;;;;;5051561;28;20417;-66
2021/07/22 04:28:46;;;;;;;16.67;10.80;;;;;;;;;;5052426;28;20810;-66
2021/07/22 04:31:18;;;;;;;15.97;10.77;;;;;;;;;;5059482;28;20432;-66
2021/07/22 04:33:44;;;;;;;15.97;11.70;;;;;;;;;;5072619;28;20417;-66
2021/07/22 04:36:10;;;;;;;17.17;10.90;;;;;;;;;;5057324;28;20978;-66
2021/07/22 04:38:39;;;;;;;16.43;10.97;;;;;;;;;;5052729;28;20759;-66
2021/07/22 04:41:05;;;;;;;15.60;9.50;;;;;;;;;;5051632;28;20457;-65
2021/07/22 04:43:31;;;;;;;16.43;10.30;;;;;;;;;;5051160;28;20922;-65
2021/07/22 04:46:01;;;;;;;16.43;11.10;;;;;;;;;;5051295;28;20813;-65
2021/07/22 04:48:27;;;;;;;19.77;11.47;;;;;;;;;;5050824;28;20414;-65
2021/07/22 04:50:53;;;;;;;21.87;11.90;;;;;;;;;;5051286;28;20453;-66
2021/07/22 04:53:19;;;;;;;16.43;10.90;;;;;;;;;;5054818;28;20875;-65
2021/07/22 04:55:44;;;;;;;17.00;10.83;;;;;;;;;;5054798;28;20451;-66
2021/07/22 04:58:10;;;;;;;14.17;9.93;;;;;;;;;;5055654;28;20402;-65
2021/07/22 05:00:36;;;;;;;14.47;9.27;;;;;;;;;;5052646;28;20441;-65
2021/07/22 05:03:03;;;;;;;18.83;11.80;;;;;;;;;;5055552;28;20417;-66
2021/07/22 05:05:30;;;;;;;16.60;11.30;;;;;;;;;;5053344;28;20457;-66
2021/07/22 05:07:57;;;;;;;16.83;12.47;;;;;;;;;;5055391;28;20581;-66
2021/07/22 05:10:23;;;;;;;18.47;11.60;;;;;;;;;;5054329;28;20463;-66
2021/07/22 05:12:57;;;;;;;17.33;10.33;;;;;;;;;;5055531;28;20406;-67
2021/07/22 05:15:23;;;;;;;18.20;10.50;;;;;;;;;;5054629;28;20460;-67
2021/07/22 05:17:49;;;;;;;20.57;12.17;;;;;;;;;;5055152;28;20463;-66
2021/07/22 05:20:15;;;;;;;17.30;11.07;;;;;;;;;;5054235;28;20456;-67
2021/07/22 05:22:41;;;;;;;12.63;9.97;;;;;;;;;;5055457;28;20402;-67
2021/07/22 05:25:07;;;;;;;19.10;11.90;;;;;;;;;;5054065;28;21202;-67
2021/07/22 05:27:33;;;;;;;16.00;10.60;;;;;;;;;;5055050;28;20397;-67
2021/07/22 05:29:59;;;;;;;15.07;10.57;;;;;;;;;;5054419;28;20390;-67
2021/07/22 05:32:25;;;;;;;19.67;12.67;;;;;;;;;;5055024;28;20714;-66
2021/07/22 05:34:51;;;;;;;20.63;12.60;;;;;;;;;;5054618;28;20528;-69
2021/07/22 05:37:17;;;;;;;17.00;12.00;;;;;;;;;;5055003;28;20488;-67
2021/07/22 05:39:43;;;;;;;14.73;11.50;;;;;;;;;;5054730;28;20449;-67
2021/07/22 05:42:09;;;;;;;16.70;11.20;;;;;;;;;;5054261;28;20410;-66
2021/07/22 05:44:35;;;;;;;14.27;10.50;;;;;;;;;;5054836;28;20413;-67
2021/07/22 05:47:02;;;;;;;20.13;11.27;;;;;;;;;;5054014;28;20525;-66
2021/07/22 05:49:28;;;;;;;14.10;9.93;;;;;;;;;;5054745;28;20402;-67
2021/07/22 05:51:54;;;;;;;16.10;10.50;;;;;;;;;;5053616;28;20472;-66
2021/07/22 05:54:20;;;;;;;18.57;10.90;;;;;;;;;;5053539;28;20450;-66
2021/07/22 05:56:46;;;;;;;16.50;10.20;;;;;;;;;;5053609;28;20443;-67
2021/07/22 05:59:12;;;;;;;17.97;10.97;;;;;;;;;;5054570;28;20542;-66
2021/07/22 06:01:38;;;;;;;16.90;11.40;;;;;;;;;;5053686;28;20409;-66
2021/07/22 06:04:04;;;;;;;15.13;10.63;;;;;;;;;;5054198;28;20532;-67
2021/07/22 06:06:30;;;;;;;15.10;10.60;;;;;;;;;;5054394;28;20422;-66
2021/07/22 06:08:57;;;;;;;13.07;9.60;;;;;;;;;;5054426;28;20393;-66
2021/07/22 06:11:23;;;;;;;19.83;12.87;;;;;;;;;;5054111;28;20425;-66
2021/07/22 06:13:49;;;;;;;17.10;10.93;;;;;;;;;;5054231;28;20398;-66
2021/07/22 06:16:15;;;;;;;21.40;12.23;;;;;;;;;;5053426;28;20430;-66
2021/07/22 06:18:42;;;;;;;19.77;10.90;;;;;;;;;;5054382;28;20761;-67
2021/07/22 06:21:11;;;;;;;16.20;11.33;;;;;;;;;;5053509;28;20457;-67
2021/07/22 06:23:37;;;;;;;17.27;12.10;;;;;;;;;;5054018;28;20467;-67
2021/07/22 06:26:03;;;;;;;18.60;12.67;;;;;;;;;;5053419;28;20937;-67
2021/07/22 06:28:30;;;;;;;15.83;10.27;;;;;;;;;;5066321;28;20433;-66
2021/07/22 06:30:56;;;;;;;16.93;12.60;;;;;;;;;;5066877;28;20934;-67
2021/07/22 06:33:22;;;;;;;20.93;11.87;;;;;;;;;;5054453;28;20438;-66
2021/07/22 06:35:48;;;;;;;15.07;10.03;;;;;;;;;;5053245;28;20960;-67
2021/07/22 06:38:14;;;;;;;21.20;12.77;;;;;;;;;;5054614;28;20463;-66
2021/07/22 06:40:41;;;;;;;14.77;11.43;;;;;;;;;;5052777;28;20826;-66
2021/07/22 06:43:07;;;;;;;15.27;10.30;;;;;;;;;;5071762;28;20429;-66
2021/07/22 06:45:34;;;;;;;17.33;11.77;;;;;;;;;;5070015;28;20437;-67
2021/07/22 06:48:01;;;;;;;17.40;12.10;;;;;;;;;;5052588;28;20410;-66
2021/07/22 06:50:27;;;;;;;18.60;14.07;;;;;;;;;;5052881;28;20405;-67
2021/07/22 06:52:53;;;;;;;17.20;11.40;;;;;;;;;;5054093;28;20406;-67
2021/07/22 06:55:19;;;;;;;16.87;11.30;;;;;;;;;;5053905;28;20437;-67
2021/07/22 06:57:45;;;;;;;18.03;11.17;;;;;;;;;;5073951;28;20403;-67
2021/07/22 07:00:11;;;;;;;17.70;11.80;;;;;;;;;;5069762;28;20871;-67
2021/07/22 07:02:37;;;;;;;15.73;10.50;;;;;;;;;;5053010;28;20483;-66
2021/07/22 07:05:06;;;;;;;21.80;10.87;;;;;;;;;;5053739;28;20441;-66
2021/07/22 07:07:32;;;;;;;16.53;12.67;;;;;;;;;;5053459;28;20434;-66
2021/07/22 07:09:58;;;;;;;20.27;12.37;;;;;;;;;;5053659;28;20444;-66
2021/07/22 07:12:24;;;;;;;16.37;10.33;;;;;;;;;;5052514;28;20521;-66
2021/07/22 07:14:50;;;;;;;23.80;11.30;;;;;;;;;;5052694;28;20425;-66
2021/07/22 07:17:16;;;;;;;17.23;10.53;;;;;;;;;;5052433;28;20429;-66
2021/07/22 07:19:42;;;;;;;14.13;10.13;;;;;;;;;;5053370;28;20517;-66
2021/07/22 07:22:08;;;;;;;17.03;10.23;;;;;;;;;;5052449;28;20433;-66
2021/07/22 07:24:34;;;;;;;16.47;10.83;;;;;;;;;;5051779;28;20438;-66
2021/07/22 07:27:00;;;;;;;20.73;11.73;;;;;;;;;;5051916;28;20910;-66
2021/07/22 07:29:26;;;;;;;16.13;10.47;;;;;;;;;;5052233;28;20412;-67
2021/07/22 07:31:57;;;;;;;17.03;10.10;;;;;;;;;;5052125;28;20925;-66
2021/07/22 07:34:23;;;;;;;13.27;10.03;;;;;;;;;;5031032;28;20454;-67
2021/07/22 07:36:49;;;;;;;14.80;10.90;;;;;;;;;;5033545;28;20508;-67
2021/07/22 07:39:16;;;;;;;14.33;8.80;;;;;;;;;;5051738;28;20437;-67
2021/07/22 07:41:42;;;;;;;15.67;10.53;;;;;;;;;;5052108;28;20847;-66
2021/07/22 07:44:08;;;;;;;13.20;9.07;;;;;;;;;;5051640;28;20440;-67
2021/07/22 07:46:34;;;;;;;17.20;10.40;;;;;;;;;;5046091;28;20417;-66
2021/07/22 07:49:02;;;;;;;14.57;9.93;;;;;;;;;;5051913;28;20409;-68
2021/07/22 07:51:28;;;;;;;16.70;11.27;;;;;;;;;;5051918;28;20468;-67
2021/07/22 07:53:54;;;;;;;13.90;9.60;;;;;;;;;;5043106;28;20433;-67
2021/07/22 07:56:20;;;;;;;16.43;10.80;;;;;;;;;;5042297;28;20433;-66
2021/07/22 07:58:46;;;;;;;18.73;11.70;;;;;;;;;;5050881;28;20413;-67
2021/07/22 08:01:12;;;;;;;20.57;12.93;;;;;;;;;;5051498;28;20563;-66
2021/07/22 08:03:38;;;;;;;15.70;10.30;;;;;;;;;;5044877;28;20490;-67
2021/07/22 08:06:04;;;;;;;15.63;10.10;;;;;;;;;;5043368;28;20984;-67
2021/07/22 08:08:31;;;;;;;15.03;10.53;;;;;;;;;;5051405;28;20429;-67
2021/07/22 08:10:58;;;;;;;13.93;8.57;;;;;;;;;;5053370;28;20406;-67
2021/07/22 08:13:25;;;;;;;14.03;9.20;;;;;;;;;;5052645;28;20401;-67
2021/07/22 08:15:51;;;;;;;15.70;10.80;;;;;;;;;;5043131;28;20427;-66
2021/07/22 08:18:17;;;;;;;16.50;10.47;;;;;;;;;;5049177;28;20452;-66
2021/07/22 08:20:43;;;;;;;16.57;9.90;;;;;;;;;;5035883;28;20934;-66
2021/07/22 08:23:09;;;;;;;14.57;9.63;;;;;;;;;;5056751;28;20872;-66
2021/07/22 08:25:38;;;;;;;11.23;9.10;;;;;;;;;;5038187;28;20529;-66
2021/07/22 08:28:05;;;;;;;12.20;9.73;;;;;;;;;;5048073;28;20964;-66
2021/07/22 08:30:31;;;;;;;16.60;10.60;;;;;;;;;;5052985;28;20421;-66
2021/07/22 08:32:57;;;;;;;17.67;10.60;;;;;;;;;;5048926;28;20432;-66
2021/07/22 08:35:23;;;;;;;13.70;9.70;;;;;;;;;;5042091;28;20743;-66
2021/07/22 08:37:49;;;;;;;14.43;9.83;;;;;;;;;;5050552;28;20447;-66
2021/07/22 08:40:16;;;;;;;12.90;8.93;;;;;;;;;;5048199;28;21071;-66
2021/07/22 08:42:44;;;;;;;13.67;9.63;;;;;;;;;;5053760;28;20420;-66
2021/07/22 08:45:11;;;;;;;15.30;9.90;;;;;;;;;;5038578;28;20429;-66
2021/07/22 08:47:37;;;;;;;14.20;9.50;;;;;;;;;;5054860;28;20417;-66
2021/07/22 08:50:04;;;;;;;16.40;9.23;;;;;;;;;;5059591;28;20880;-66
2021/07/22 08:52:30;;;;;;;13.20;9.47;;;;;;;;;;5049209;28;20467;-66
2021/07/22 08:54:56;;;;;;;13.00;9.20;;;;;;;;;;5052749;28;20440;-66
2021/07/22 08:57:29;;;;;;;19.70;11.37;;;;;;;;;;5043486;28;20433;-66
2021/07/22 08:59:55;;;;;;;19.13;10.60;;;;;;;;;;5045916;28;20446;-66
2021/07/22 09:02:23;;;;;;;12.50;10.10;;;;;;;;;;5047958;28;20433;-66
2021/07/22 09:05:00;;;;;;;14.90;9.60;;;;;;;;;;5054658;28;20443;-66
2021/07/22 09:07:26;;;;;;;13.37;9.37;;;;;;;;;;5041947;28;20979;-66
2021/07/22 09:10:05;;;;;;;12.80;8.20;;;;;;;;;;5045616;28;20516;-66
2021/07/22 09:12:43;;;;;;;13.07;8.93;;;;;;;;;;5049055;28;20778;-66
2021/07/22 09:15:29;;;;;;;14.27;10.03;;;;;;;;;;5051972;28;20430;-66
2021/07/22 09:17:55;;;;;;;12.37;8.73;;;;;;;;;;5042771;28;20441;-66
2021/07/22 09:20:28;;;;;;;10.13;7.50;;;;;;;;;;5054624;28;20545;-66
2021/07/22 09:22:54;;;;;;;14.67;9.60;;;;;;;;;;5041528;28;20425;-66
2021/07/22 09:25:36;;;;;;;10.57;7.80;;;;;;;;;;5040018;28;20441;-66
2021/07/22 09:28:02;;;;;;;14.30;9.80;;;;;;;;;;5051909;28;20429;-66
2021/07/22 09:30:29;;;;;;;14.23;9.00;;;;;;;;;;5060650;28;20409;-66
2021/07/22 09:32:55;;;;;;;12.70;8.80;;;;;;;;;;5052408;28;20433;-66
2021/07/22 09:35:22;;;;;;;14.17;8.17;;;;;;;;;;5050237;28;20864;-66
2021/07/22 09:37:49;;;;;;;11.83;8.53;;;;;;;;;;5042038;28;20512;-66
2021/07/22 09:40:35;;;;;;;14.20;8.03;;;;;;;;;;5054279;28;20547;-66
2021/07/22 09:43:01;;;;;;;10.90;9.07;;;;;;;;;;5041514;28;20471;-66
2021/07/22 09:45:30;;;;;;;17.23;9.47;;;;;;;;;;5048640;28;20416;-66
2021/07/22 09:47:57;;;;;;;12.57;8.17;;;;;;;;;;5043942;28;20425;-66
2021/07/22 09:50:24;;;;;;;12.83;8.97;;;;;;;;;;5054406;28;20421;-66
2021/07/22 09:53:06;;;;;;;12.90;8.60;;;;;;;;;;5040984;28;20425;-66
2021/07/22 09:55:33;;;;;;;14.00;9.47;;;;;;;;;;5053200;28;20499;-66
2021/07/22 09:58:12;;;;;;;13.60;9.10;;;;;;;;;;5053987;28;20430;-66
2021/07/22 10:00:42;;;;;;;14.43;9.20;;;;;;;;;;5038571;28;20484;-66
2021/07/22 10:03:10;;;;;;;11.43;8.63;;;;;;;;;;5036809;28;20450;-66
2021/07/22 10:05:40;;;;;;;15.27;10.37;;;;;;;;;;5034082;28;20491;-66
2021/07/22 10:08:07;;;;;;;16.57;9.67;;;;;;;;;;5044639;28;20520;-66
2021/07/22 10:10:35;;;;;;;11.50;8.70;;;;;;;;;;5053742;28;20410;-66
2021/07/22 10:13:01;;;;;;;15.27;10.03;;;;;;;;;;5039797;28;20516;-66
2021/07/22 10:15:35;;;;;;;10.97;8.00;;;;;;;;;;5052228;28;20480;-66
2021/07/22 10:18:01;;;;;;;17.03;10.33;;;;;;;;;;5053153;28;20425;-66
2021/07/22 10:20:29;;;;;;;14.40;8.33;;;;;;;;;;5051626;28;20492;-66
2021/07/22 10:22:55;;;;;;;13.60;9.70;;;;;;;;;;5052200;28;20544;-66
2021/07/22 10:25:21;;;;;;;11.83;9.20;;;;;;;;;;5049158;28;20441;-66
2021/07/22 10:27:47;;;;;;;11.60;8.47;;;;;;;;;;5041466;28;20406;-66
2021/07/22 10:30:18;;;;;;;11.40;8.67;;;;;;;;;;5053615;28;20463;-66
2021/07/22 10:32:47;;;;;;;12.40;9.47;;;;;;;;;;5038470;28;20465;-66
2021/07/22 10:35:14;;;;;;;17.20;9.23;;;;;;;;;;5037664;28;20430;-66
2021/07/22 10:38:00;;;;;;;12.17;8.40;;;;;;;;;;5046149;28;20413;-66
2021/07/22 10:40:43;;;;;;;16.50;9.30;;;;;;;;;;5053280;28;20499;-66
2021/07/22 10:43:29;;;;;;;12.57;9.37;;;;;;;;;;5037540;28;20929;-66
2021/07/22 10:45:55;;;;;;;11.17;7.43;;;;;;;;;;5035409;28;20557;-66
2021/07/22 10:48:28;;;;;;;12.70;9.60;;;;;;;;;;5035633;28;20468;-66
2021/07/22 10:50:54;;;;;;;11.77;8.30;;;;;;;;;;5051155;28;20409;-66
2021/07/22 10:53:39;;;;;;;11.77;8.23;;;;;;;;;;5045164;28;20717;-66
2021/07/22 10:56:06;;;;;;;14.43;9.33;;;;;;;;;;5053648;28;20845;-66
2021/07/22 10:58:34;;;;;;;13.70;9.20;;;;;;;;;;5052243;28;20456;-65
2021/07/22 11:01:04;;;;;;;12.37;9.17;;;;;;;;;;5052886;28;20458;-66
2021/07/22 11:03:36;;;;;;;12.00;8.63;;;;;;;;;;5046559;28;20452;-66
2021/07/22 11:06:15;;;;;;;14.00;9.80;;;;;;;;;;5053565;28;20445;-66
2021/07/22 11:08:41;;;;;;;13.10;9.10;;;;;;;;;;5051605;28;20827;-66
2021/07/22 11:11:08;;;;;;;12.53;9.40;;;;;;;;;;5052476;28;20401;-66
2021/07/22 11:13:41;;;;;;;12.97;8.90;;;;;;;;;;5045944;28;20403;-66
2021/07/22 11:16:22;;;;;;;18.80;10.47;;;;;;;;;;5052886;28;20426;-66
2021/07/22 11:18:58;;;;;;;13.57;9.63;;;;;;;;;;5050961;28;20433;-66
2021/07/22 11:21:28;;;;;;;12.30;9.57;;;;;;;;;;5045194;28;20444;-66
2021/07/22 11:23:55;;;;;;;10.80;9.40;;;;;;;;;;5048754;28;20477;-66
2021/07/22 11:26:25;;;;;;;11.50;8.50;;;;;;;;;;5053271;28;20394;-66
2021/07/22 11:28:51;;;;;;;12.53;8.90;;;;;;;;;;5051182;28;20429;-66
2021/07/22 11:31:17;;;;;;;13.60;9.17;;;;;;;;;;5052298;28;20928;-66
2021/07/22 11:33:44;;;;;;;11.40;8.30;;;;;;;;;;5042529;28;20799;-66
2021/07/22 11:36:12;;;;;;;11.07;8.37;;;;;;;;;;5042564;28;20408;-67
2021/07/22 11:38:39;;;;;;;11.20;8.57;;;;;;;;;;5039950;28;20480;-67
2021/07/22 11:41:12;;;;;;;12.30;8.80;;;;;;;;;;5048897;28;20511;-66
2021/07/22 11:43:38;;;;;;;12.03;10.23;;;;;;;;;;5039939;28;20408;-66
2021/07/22 11:46:06;;;;;;;12.87;9.47;;;;;;;;;;5042210;28;20458;-66
2021/07/22 11:48:32;;;;;;;12.37;9.47;;;;;;;;;;5039720;28;20407;-66
2021/07/22 11:51:01;;;;;;;11.70;10.43;;;;;;;;;;5040799;28;20505;-66
2021/07/22 11:53:28;;;;;;;9.57;8.00;;;;;;;;;;5043168;28;20405;-66
2021/07/22 11:55:55;;;;;;;14.20;9.50;;;;;;;;;;5044376;28;20449;-66
2021/07/22 11:58:21;;;;;;;14.20;9.97;;;;;;;;;;5041079;28;20925;-66
2021/07/22 12:00:47;;;;;;;24.00;11.53;;;;;;;;;;5039414;28;20812;-66
2021/07/22 12:03:13;;;;;;;13.57;10.00;;;;;;;;;;5047787;28;20413;-66
2021/07/22 12:05:39;;;;;;;13.27;9.20;;;;;;;;;;5044170;28;20489;-66
2021/07/22 12:08:15;;;;;;;15.50;9.97;;;;;;;;;;5046402;28;20401;-66
2021/07/22 12:10:41;;;;;;;13.30;8.80;;;;;;;;;;5047188;28;20507;-66
2021/07/22 12:13:11;;;;;;;14.70;10.00;;;;;;;;;;5051769;28;20443;-66
2021/07/22 12:15:38;;;;;;;13.63;9.33;;;;;;;;;;5055426;28;20457;-66
2021/07/22 12:18:04;;;;;;;13.03;9.37;;;;;;;;;;5055708;28;20425;-66
2021/07/22 12:20:30;;;;;;;14.00;9.67;;;;;;;;;;5046124;28;20456;-66
2021/07/22 12:22:57;;;;;;;15.50;9.77;;;;;;;;;;5052451;28;20429;-66
2021/07/22 12:25:28;;;;;;;12.20;8.13;;;;;;;;;;5055172;28;20449;-66
2021/07/22 12:27:56;;;;;;;11.40;8.67;;;;;;;;;;5056083;28;20412;-66
2021/07/22 12:30:30;;;;;;;10.57;8.07;;;;;;;;;;5057931;28;20436;-66
2021/07/22 12:32:59;;;;;;;11.27;8.97;;;;;;;;;;5063014;28;20765;-66
2021/07/22 12:35:32;;;;;;;12.10;9.10;;;;;;;;;;5057699;28;20445;-66
2021/07/22 12:38:02;;;;;;;12.73;8.53;;;;;;;;;;5054109;28;20459;-66
2021/07/22 12:40:31;;;;;;;12.40;9.90;;;;;;;;;;5053267;28;20799;-66
2021/07/22 12:42:58;;;;;;;12.57;9.53;;;;;;;;;;5041228;28;20902;-66
2021/07/22 12:45:24;;;;;;;11.77;8.73;;;;;;;;;;5058140;28;20445;-66
2021/07/22 12:47:50;;;;;;;14.40;9.53;;;;;;;;;;5055681;28;20402;-66
2021/07/22 12:50:33;;;;;;;14.97;9.57;;;;;;;;;;5045955;28;20934;-66
2021/07/22 12:53:03;;;;;;;13.97;9.13;;;;;;;;;;5041947;28;20841;-66
2021/07/22 12:55:38;;;;;;;11.80;9.10;;;;;;;;;;5053095;28;20917;-65
2021/07/22 12:58:04;;;;;;;11.90;8.73;;;;;;;;;;5054480;28;20459;-65
2021/07/22 13:00:30;;;;;;;16.23;9.97;;;;;;;;;;5053208;28;20453;-65
2021/07/22 13:02:57;;;;;;;11.10;8.90;;;;;;;;;;5050204;28;21540;-66
2021/07/22 13:05:24;;;;;;;12.00;9.10;;;;;;;;;;5054822;28;20964;-67
2021/07/22 13:07:50;;;;;;;10.13;8.77;;;;;;;;;;5050564;28;20425;-67
2021/07/22 13:10:16;;;;;;;14.33;10.10;;;;;;;;;;5048205;28;20563;-66
2021/07/22 13:12:43;;;;;;;11.03;8.80;;;;;;;;;;5034459;28;20839;-66
2021/07/22 13:15:09;;;;;;;11.23;8.87;;;;;;;;;;5053763;28;20441;-66
2021/07/22 13:17:41;;;;;;;11.90;8.80;;;;;;;;;;5047402;28;20484;-67
2021/07/22 13:20:08;;;;;;;11.60;10.10;;;;;;;;;;5044092;28;20454;-67
2021/07/22 13:22:34;;;;;;;11.90;9.60;;;;;;;;;;5050414;28;20916;-66
2021/07/22 13:25:00;;;;;;;13.43;9.20;;;;;;;;;;5052090;28;20469;-66
2021/07/22 13:27:26;;;;;;;13.00;8.70;;;;;;;;;;5041688;28;20409;-66
2021/07/22 13:29:52;;;;;;;11.30;8.67;;;;;;;;;;5051370;28;20839;-66
2021/07/22 13:32:18;;;;;;;13.00;9.17;;;;;;;;;;5055447;28;20444;-67
2021/07/22 13:34:45;;;;;;;12.40;9.60;;;;;;;;;;5054156;28;20509;-65
2021/07/22 13:37:11;;;;;;;13.40;9.27;;;;;;;;;;5047283;28;20491;-66
2021/07/22 13:39:38;;;;;;;13.07;9.67;;;;;;;;;;5050369;28;20449;-66
2021/07/22 13:42:06;;;;;;;13.23;9.40;;;;;;;;;;5051390;28;20468;-67
2021/07/22 13:44:33;;;;;;;13.37;8.17;;;;;;;;;;5041233;28;20508;-66
2021/07/22 13:46:59;;;;;;;12.00;9.00;;;;;;;;;;5043221;28;20484;-66
2021/07/22 13:49:28;;;;;;;12.27;8.67;;;;;;;;;;5054373;28;20460;-66
2021/07/22 13:51:55;;;;;;;12.17;9.33;;;;;;;;;;5054938;28;20800;-67
2021/07/22 13:54:21;;;;;;;13.30;8.93;;;;;;;;;;5056099;28;20954;-66
2021/07/22 13:56:47;;;;;;;13.90;9.33;;;;;;;;;;5056441;28;20428;-66
2021/07/22 13:59:13;;;;;;;12.43;8.73;;;;;;;;;;5054428;28;20409;-67
2021/07/22 14:01:39;;;;;;;14.67;9.00;;;;;;;;;;5053634;28;20436;-67
2021/07/22 14:04:08;;;;;;;10.43;8.20;;;;;;;;;;5064353;22;20448;-82
2021/07/22 14:06:34;;;;;;;12.60;8.20;;;;;;;;;;5126256;28;20448;-83
2021/07/22 14:09:00;;;;;;;10.63;8.50;;;;;;;;;;5121551;28;20427;-82
2021/07/22 14:11:26;;;;;;;13.47;10.00;;;;;;;;;;5130510;28;20485;-82
2021/07/22 14:13:52;;;;;;;13.47;8.80;;;;;;;;;;5129015;28;20434;-81
2021/07/22 14:16:18;;;;;;;11.33;8.80;;;;;;;;;;5128440;28;20430;-81
2021/07/22 14:18:44;;;;;;;10.73;8.30;;;;;;;;;;5119890;28;20407;-79
2021/07/22 14:21:10;;;;;;;11.30;8.57;;;;;;;;;;5125468;28;20458;-80
2021/07/22 14:23:36;;;;;;;11.87;9.10;;;;;;;;;;5125009;28;20952;-80